sensor_id;sensor_type;location;lat;lon;timestamp;P1;durP1;ratioP1;P2;durP2;ratioP2
23565;SDS011;22140;48.988;8.544;2023-02-01T02:55:04;7.15;;;2.00;;
23565;SDS011;22140;48.988;8.544;2023-02-01T03:00:08;5.10;;;1.60;;
23565;SDS011;22140;48.988;8.544;2023-02-01T03:05:35;5.00;;;1.47;;
23565;SDS011;22140;48.988;8.544;2023-02-01T03:10:57;7.00;;;1.67;;
23565;SDS011;22140;48.988;8.544;2023-02-01T03:21:40;6.05;;;1.60;;
23565;SDS011;22140;48.988;8.544;2023-02-01T03:26:43;6.60;;;2.00;;
23565;SDS011;22140;48.988;8.544;2023-02-01T03:31:48;7.00;;;1.70;;
23565;SDS011;22140;48.988;8.544;2023-02-01T03:37:00;6.15;;;1.60;;
23565;SDS011;22140;48.988;8.544;2023-02-01T03:42:04;6.77;;;2.03;;
23565;SDS011;22140;48.988;8.544;2023-02-01T03:47:08;6.45;;;1.90;;
23565;SDS011;22140;48.988;8.544;2023-02-01T03:52:14;6.35;;;1.70;;
23565;SDS011;22140;48.988;8.544;2023-02-01T03:57:16;5.93;;;1.80;;
23565;SDS011;22140;48.988;8.544;2023-02-01T04:02:20;6.65;;;1.90;;
23565;SDS011;22140;48.988;8.544;2023-02-01T04:07:22;7.00;;;2.10;;
23565;SDS011;22140;48.988;8.544;2023-02-01T04:12:23;6.63;;;2.00;;
23565;SDS011;22140;48.988;8.544;2023-02-01T04:17:24;6.70;;;1.90;;
23565;SDS011;22140;48.988;8.544;2023-02-01T04:22:25;6.90;;;1.80;;
23565;SDS011;22140;48.988;8.544;2023-02-01T04:27:27;6.00;;;1.90;;
23565;SDS011;22140;48.988;8.544;2023-02-01T04:32:28;6.33;;;1.90;;
23565;SDS011;22140;48.988;8.544;2023-02-01T04:37:29;6.60;;;1.60;;
23565;SDS011;22140;48.988;8.544;2023-02-01T04:42:31;6.63;;;1.90;;
23565;SDS011;22140;48.988;8.544;2023-02-01T04:47:32;5.37;;;1.60;;
23565;SDS011;22140;48.988;8.544;2023-02-01T04:52:34;5.95;;;1.48;;
23565;SDS011;22140;48.988;8.544;2023-02-01T04:57:35;7.53;;;1.80;;
23565;SDS011;22140;48.988;8.544;2023-02-01T05:02:36;5.85;;;1.60;;
23565;SDS011;22140;48.988;8.544;2023-02-01T05:07:38;5.18;;;1.58;;
23565;SDS011;22140;48.988;8.544;2023-02-01T05:12:40;6.30;;;1.63;;
23565;SDS011;22140;48.988;8.544;2023-02-01T05:18:00;4.85;;;1.38;;
23565;SDS011;22140;48.988;8.544;2023-02-01T05:23:01;6.17;;;1.97;;
23565;SDS011;22140;48.988;8.544;2023-02-01T05:28:02;6.65;;;1.88;;
23565;SDS011;22140;48.988;8.544;2023-02-01T05:33:04;5.47;;;1.80;;
23565;SDS011;22140;48.988;8.544;2023-02-01T05:38:05;8.03;;;2.00;;
23565;SDS011;22140;48.988;8.544;2023-02-01T05:43:06;5.07;;;1.63;;
23565;SDS011;22140;48.988;8.544;2023-02-01T05:48:08;6.87;;;2.40;;
23565;SDS011;22140;48.988;8.544;2023-02-01T05:53:09;8.68;;;2.40;;
23565;SDS011;22140;48.988;8.544;2023-02-01T05:58:10;6.47;;;2.30;;
23565;SDS011;22140;48.988;8.544;2023-02-01T06:03:13;8.23;;;2.40;;
23565;SDS011;22140;48.988;8.544;2023-02-01T06:08:14;9.48;;;2.40;;
23565;SDS011;22140;48.988;8.544;2023-02-01T06:13:16;7.73;;;2.60;;
23565;SDS011;22140;48.988;8.544;2023-02-01T06:18:17;9.43;;;2.75;;
23565;SDS011;22140;48.988;8.544;2023-02-01T06:23:19;8.05;;;2.50;;
23565;SDS011;22140;48.988;8.544;2023-02-01T06:28:20;9.87;;;2.73;;
23565;SDS011;22140;48.988;8.544;2023-02-01T06:33:22;8.70;;;3.17;;
23565;SDS011;22140;48.988;8.544;2023-02-01T06:38:24;7.20;;;2.67;;
23565;SDS011;22140;48.988;8.544;2023-02-01T06:43:26;8.63;;;2.55;;
23565;SDS011;22140;48.988;8.544;2023-02-01T06:48:27;7.93;;;2.42;;
23565;SDS011;22140;48.988;8.544;2023-02-01T06:53:29;9.37;;;2.47;;
23565;SDS011;22140;48.988;8.544;2023-02-01T06:58:31;10.93;;;3.55;;
23565;SDS011;22140;48.988;8.544;2023-02-01T07:03:32;9.80;;;3.20;;
23565;SDS011;22140;48.988;8.544;2023-02-01T07:08:34;8.95;;;2.92;;
23565;SDS011;22140;48.988;8.544;2023-02-01T07:13:36;9.27;;;2.70;;
23565;SDS011;22140;48.988;8.544;2023-02-01T07:18:37;8.97;;;3.27;;
23565;SDS011;22140;48.988;8.544;2023-02-01T07:23:39;8.45;;;3.00;;
23565;SDS011;22140;48.988;8.544;2023-02-01T07:28:40;10.47;;;3.43;;
23565;SDS011;22140;48.988;8.544;2023-02-01T07:33:42;11.52;;;3.45;;
23565;SDS011;22140;48.988;8.544;2023-02-01T07:38:43;12.70;;;3.13;;
23565;SDS011;22140;48.988;8.544;2023-02-01T07:43:44;13.30;;;5.63;;
23565;SDS011;22140;48.988;8.544;2023-02-01T07:48:46;11.70;;;3.25;;
23565;SDS011;22140;48.988;8.544;2023-02-01T07:53:47;10.57;;;3.50;;
23565;SDS011;22140;48.988;8.544;2023-02-01T07:58:49;9.05;;;2.90;;
23565;SDS011;22140;48.988;8.544;2023-02-01T08:03:52;8.68;;;2.65;;
23565;SDS011;22140;48.988;8.544;2023-02-01T08:08:54;9.10;;;3.10;;
23565;SDS011;22140;48.988;8.544;2023-02-01T08:13:55;7.28;;;2.00;;
23565;SDS011;22140;48.988;8.544;2023-02-01T08:18:56;9.03;;;2.20;;
23565;SDS011;22140;48.988;8.544;2023-02-01T08:23:58;7.35;;;2.58;;
23565;SDS011;22140;48.988;8.544;2023-02-01T08:29:01;7.13;;;2.20;;
23565;SDS011;22140;48.988;8.544;2023-02-01T08:34:02;7.23;;;2.10;;
23565;SDS011;22140;48.988;8.544;2023-02-01T08:39:06;10.20;;;2.08;;
23565;SDS011;22140;48.988;8.544;2023-02-01T08:44:10;7.57;;;2.20;;
23565;SDS011;22140;48.988;8.544;2023-02-01T08:49:11;8.13;;;2.40;;
23565;SDS011;22140;48.988;8.544;2023-02-01T08:54:12;12.63;;;2.70;;
23565;SDS011;22140;48.988;8.544;2023-02-01T08:59:14;9.37;;;2.33;;
23565;SDS011;22140;48.988;8.544;2023-02-01T09:04:15;7.70;;;2.20;;
23565;SDS011;22140;48.988;8.544;2023-02-01T09:09:16;9.67;;;2.40;;
23565;SDS011;22140;48.988;8.544;2023-02-01T09:14:18;10.68;;;2.30;;
23565;SDS011;22140;48.988;8.544;2023-02-01T09:19:19;10.23;;;2.35;;
23565;SDS011;22140;48.988;8.544;2023-02-01T09:24:26;7.70;;;2.00;;
23565;SDS011;22140;48.988;8.544;2023-02-01T09:29:28;12.05;;;2.85;;
23565;SDS011;22140;48.988;8.544;2023-02-01T09:34:30;7.50;;;1.97;;
23565;SDS011;22140;48.988;8.544;2023-02-01T09:39:31;12.82;;;2.50;;
23565;SDS011;22140;48.988;8.544;2023-02-01T09:44:39;10.95;;;2.20;;
23565;SDS011;22140;48.988;8.544;2023-02-01T09:49:47;9.43;;;2.27;;
23565;SDS011;22140;48.988;8.544;2023-02-01T09:54:50;10.80;;;2.60;;
23565;SDS011;22140;48.988;8.544;2023-02-01T09:59:56;12.20;;;2.67;;
23565;SDS011;22140;48.988;8.544;2023-02-01T10:04:59;14.95;;;2.20;;
23565;SDS011;22140;48.988;8.544;2023-02-01T10:10:04;10.75;;;2.35;;
23565;SDS011;22140;48.988;8.544;2023-02-01T10:15:18;9.57;;;2.20;;
23565;SDS011;22140;48.988;8.544;2023-02-01T10:25:37;9.17;;;2.23;;
23565;SDS011;22140;48.988;8.544;2023-02-01T10:30:42;11.88;;;2.60;;
23565;SDS011;22140;48.988;8.544;2023-02-01T10:35:45;10.85;;;2.63;;
23565;SDS011;22140;48.988;8.544;2023-02-01T10:40:47;9.83;;;2.70;;
23565;SDS011;22140;48.988;8.544;2023-02-01T10:45:48;13.13;;;2.60;;
23565;SDS011;22140;48.988;8.544;2023-02-01T10:51:00;9.87;;;2.57;;
23565;SDS011;22140;48.988;8.544;2023-02-01T10:56:07;12.43;;;2.38;;
23565;SDS011;22140;48.988;8.544;2023-02-01T11:01:09;9.88;;;2.10;;
23565;SDS011;22140;48.988;8.544;2023-02-01T11:11:16;13.20;;;3.25;;
23565;SDS011;22140;48.988;8.544;2023-02-01T11:16:20;11.27;;;2.73;;
23565;SDS011;22140;48.988;8.544;2023-02-01T11:21:21;12.40;;;2.60;;
23565;SDS011;22140;48.988;8.544;2023-02-01T11:26:24;7.72;;;2.17;;
23565;SDS011;22140;48.988;8.544;2023-02-01T11:31:26;9.97;;;2.13;;
23565;SDS011;22140;48.988;8.544;2023-02-01T11:36:29;10.68;;;2.60;;
23565;SDS011;22140;48.988;8.544;2023-02-01T11:41:31;11.73;;;2.43;;
23565;SDS011;22140;48.988;8.544;2023-02-01T11:46:34;11.20;;;2.58;;
23565;SDS011;22140;48.988;8.544;2023-02-01T11:51:45;12.10;;;2.60;;
23565;SDS011;22140;48.988;8.544;2023-02-01T12:07:34;10.30;;;2.30;;
23565;SDS011;22140;48.988;8.544;2023-02-01T12:23:01;12.57;;;2.10;;
23565;SDS011;22140;48.988;8.544;2023-02-01T12:28:07;9.95;;;2.25;;
23565;SDS011;22140;48.988;8.544;2023-02-01T12:33:31;11.47;;;2.50;;
23565;SDS011;22140;48.988;8.544;2023-02-01T12:59:08;12.77;;;2.40;;
23565;SDS011;22140;48.988;8.544;2023-02-01T13:04:16;9.88;;;2.40;;
23565;SDS011;22140;48.988;8.544;2023-02-01T13:10:03;14.40;;;3.00;;
23565;SDS011;22140;48.988;8.544;2023-02-01T13:14:46;18.17;;;2.70;;
23565;SDS011;22140;48.988;8.544;2023-02-01T13:24:53;14.60;;;2.60;;
23565;SDS011;22140;48.988;8.544;2023-02-01T13:30:01;12.25;;;2.70;;
23565;SDS011;22140;48.988;8.544;2023-02-01T13:35:23;10.50;;;2.20;;
23565;SDS011;22140;48.988;8.544;2023-02-01T13:45:31;10.73;;;2.65;;
23565;SDS011;22140;48.988;8.544;2023-02-01T13:50:37;11.17;;;2.23;;
23565;SDS011;22140;48.988;8.544;2023-02-01T13:55:45;10.88;;;2.47;;
23565;SDS011;22140;48.988;8.544;2023-02-01T14:00:48;11.88;;;2.15;;
23565;SDS011;22140;48.988;8.544;2023-02-01T14:10:58;15.60;;;2.85;;
23565;SDS011;22140;48.988;8.544;2023-02-01T14:21:18;15.27;;;2.80;;
23565;SDS011;22140;48.988;8.544;2023-02-01T14:26:25;12.00;;;2.35;;
23565;SDS011;22140;48.988;8.544;2023-02-01T14:31:44;15.20;;;2.47;;
23565;SDS011;22140;48.988;8.544;2023-02-01T14:36:53;11.38;;;2.40;;
23565;SDS011;22140;48.988;8.544;2023-02-01T14:41:57;14.70;;;3.03;;
23565;SDS011;22140;48.988;8.544;2023-02-01T14:47:07;15.98;;;3.10;;
23565;SDS011;22140;48.988;8.544;2023-02-01T14:52:11;15.57;;;2.33;;
23565;SDS011;22140;48.988;8.544;2023-02-01T14:57:15;12.07;;;2.63;;
23565;SDS011;22140;48.988;8.544;2023-02-01T15:02:20;12.65;;;2.33;;
23565;SDS011;22140;48.988;8.544;2023-02-01T15:07:26;9.57;;;1.80;;
23565;SDS011;22140;48.988;8.544;2023-02-01T15:12:28;15.15;;;2.53;;
23565;SDS011;22140;48.988;8.544;2023-02-01T15:17:32;16.85;;;3.00;;
23565;SDS011;22140;48.988;8.544;2023-02-01T15:22:35;12.33;;;2.70;;
23565;SDS011;22140;48.988;8.544;2023-02-01T15:27:38;11.95;;;2.13;;
23565;SDS011;22140;48.988;8.544;2023-02-01T15:32:40;15.47;;;2.80;;
23565;SDS011;22140;48.988;8.544;2023-02-01T15:37:41;10.05;;;2.22;;
23565;SDS011;22140;48.988;8.544;2023-02-01T15:47:54;14.23;;;2.00;;
23565;SDS011;22140;48.988;8.544;2023-02-01T15:52:56;12.70;;;2.47;;
23565;SDS011;22140;48.988;8.544;2023-02-01T15:57:57;17.97;;;2.30;;
23565;SDS011;22140;48.988;8.544;2023-02-01T16:03:00;14.07;;;2.97;;
23565;SDS011;22140;48.988;8.544;2023-02-01T16:08:04;12.68;;;3.28;;
23565;SDS011;22140;48.988;8.544;2023-02-01T16:13:05;12.80;;;2.67;;
23565;SDS011;22140;48.988;8.544;2023-02-01T16:18:07;13.10;;;3.33;;
23565;SDS011;22140;48.988;8.544;2023-02-01T16:23:11;11.90;;;2.13;;
23565;SDS011;22140;48.988;8.544;2023-02-01T16:28:13;15.63;;;2.88;;
23565;SDS011;22140;48.988;8.544;2023-02-01T16:33:16;9.40;;;2.42;;
23565;SDS011;22140;48.988;8.544;2023-02-01T16:38:20;15.60;;;2.63;;
23565;SDS011;22140;48.988;8.544;2023-02-01T16:43:24;11.45;;;2.67;;
23565;SDS011;22140;48.988;8.544;2023-02-01T16:48:35;15.50;;;2.70;;
23565;SDS011;22140;48.988;8.544;2023-02-01T16:53:37;16.85;;;2.60;;
23565;SDS011;22140;48.988;8.544;2023-02-01T16:58:53;13.02;;;2.13;;
23565;SDS011;22140;48.988;8.544;2023-02-01T17:03:55;12.50;;;2.20;;
23565;SDS011;22140;48.988;8.544;2023-02-01T17:08:57;12.63;;;2.42;;
23565;SDS011;22140;48.988;8.544;2023-02-01T17:14:15;15.03;;;3.17;;
23565;SDS011;22140;48.988;8.544;2023-02-01T17:19:19;12.05;;;2.92;;
23565;SDS011;22140;48.988;8.544;2023-02-01T17:24:25;11.95;;;2.55;;
23565;SDS011;22140;48.988;8.544;2023-02-01T17:29:36;10.43;;;2.60;;
23565;SDS011;22140;48.988;8.544;2023-02-01T17:34:37;14.95;;;2.35;;
23565;SDS011;22140;48.988;8.544;2023-02-01T17:39:38;15.70;;;2.80;;
23565;SDS011;22140;48.988;8.544;2023-02-01T17:44:56;15.15;;;2.70;;
23565;SDS011;22140;48.988;8.544;2023-02-01T17:49:58;12.48;;;3.20;;
23565;SDS011;22140;48.988;8.544;2023-02-01T17:54:59;11.87;;;2.60;;
23565;SDS011;22140;48.988;8.544;2023-02-01T18:00:01;11.60;;;2.53;;
23565;SDS011;22140;48.988;8.544;2023-02-01T18:05:07;10.63;;;2.60;;
23565;SDS011;22140;48.988;8.544;2023-02-01T18:10:10;12.52;;;2.33;;
23565;SDS011;22140;48.988;8.544;2023-02-01T18:15:18;11.60;;;2.63;;
23565;SDS011;22140;48.988;8.544;2023-02-01T18:20:24;10.70;;;2.40;;
23565;SDS011;22140;48.988;8.544;2023-02-01T18:25:29;14.88;;;2.50;;
23565;SDS011;22140;48.988;8.544;2023-02-01T18:30:34;15.90;;;2.77;;
23565;SDS011;22140;48.988;8.544;2023-02-01T18:35:35;9.80;;;2.10;;
23565;SDS011;22140;48.988;8.544;2023-02-01T18:41:11;13.52;;;2.58;;
23565;SDS011;22140;48.988;8.544;2023-02-01T18:46:05;14.30;;;3.77;;
23565;SDS011;22140;48.988;8.544;2023-02-01T18:51:10;16.95;;;2.50;;
23565;SDS011;22140;48.988;8.544;2023-02-01T18:56:13;11.13;;;2.13;;
23565;SDS011;22140;48.988;8.544;2023-02-01T19:01:15;14.35;;;2.50;;
23565;SDS011;22140;48.988;8.544;2023-02-01T19:06:17;13.30;;;2.80;;
23565;SDS011;22140;48.988;8.544;2023-02-01T19:11:18;13.63;;;2.37;;
23565;SDS011;22140;48.988;8.544;2023-02-01T19:16:19;12.65;;;2.45;;
23565;SDS011;22140;48.988;8.544;2023-02-01T19:21:21;13.57;;;2.87;;
23565;SDS011;22140;48.988;8.544;2023-02-01T19:26:22;14.65;;;2.85;;
23565;SDS011;22140;48.988;8.544;2023-02-01T19:31:24;10.32;;;2.40;;
23565;SDS011;22140;48.988;8.544;2023-02-01T19:36:25;10.97;;;2.10;;
23565;SDS011;22140;48.988;8.544;2023-02-01T19:41:27;16.52;;;2.67;;
23565;SDS011;22140;48.988;8.544;2023-02-01T19:46:28;12.20;;;1.73;;
23565;SDS011;22140;48.988;8.544;2023-02-01T19:51:30;14.30;;;2.28;;
23565;SDS011;22140;48.988;8.544;2023-02-01T19:56:31;9.00;;;2.00;;
23565;SDS011;22140;48.988;8.544;2023-02-01T20:01:33;14.30;;;2.37;;
23565;SDS011;22140;48.988;8.544;2023-02-01T20:06:37;15.23;;;3.17;;
23565;SDS011;22140;48.988;8.544;2023-02-01T20:11:38;14.13;;;2.30;;
23565;SDS011;22140;48.988;8.544;2023-02-01T20:16:40;13.68;;;2.47;;
23565;SDS011;22140;48.988;8.544;2023-02-01T20:21:41;10.45;;;2.10;;
23565;SDS011;22140;48.988;8.544;2023-02-01T20:26:43;12.73;;;2.53;;
23565;SDS011;22140;48.988;8.544;2023-02-01T20:31:45;13.07;;;2.65;;
23565;SDS011;22140;48.988;8.544;2023-02-01T20:36:46;14.60;;;2.33;;
23565;SDS011;22140;48.988;8.544;2023-02-01T20:41:48;11.05;;;2.42;;
23565;SDS011;22140;48.988;8.544;2023-02-01T20:46:49;14.20;;;2.75;;
23565;SDS011;22140;48.988;8.544;2023-02-01T20:51:50;18.40;;;2.83;;
23565;SDS011;22140;48.988;8.544;2023-02-01T20:56:52;12.80;;;1.98;;
23565;SDS011;22140;48.988;8.544;2023-02-01T21:01:54;14.30;;;2.40;;
23565;SDS011;22140;48.988;8.544;2023-02-01T21:06:56;13.45;;;2.58;;
23565;SDS011;22140;48.988;8.544;2023-02-01T21:11:57;8.32;;;2.30;;
23565;SDS011;22140;48.988;8.544;2023-02-01T21:16:59;13.80;;;2.40;;
23565;SDS011;22140;48.988;8.544;2023-02-01T21:22:00;20.13;;;2.88;;
23565;SDS011;22140;48.988;8.544;2023-02-01T21:27:01;13.30;;;2.50;;
23565;SDS011;22140;48.988;8.544;2023-02-01T21:32:03;16.67;;;2.83;;
23565;SDS011;22140;48.988;8.544;2023-02-01T21:37:05;13.40;;;2.40;;
23565;SDS011;22140;48.988;8.544;2023-02-01T21:42:07;13.10;;;2.50;;
23565;SDS011;22140;48.988;8.544;2023-02-01T21:47:18;10.85;;;2.08;;
23565;SDS011;22140;48.988;8.544;2023-02-01T21:52:26;15.50;;;2.50;;
23565;SDS011;22140;48.988;8.544;2023-02-01T21:57:28;17.70;;;2.40;;
23565;SDS011;22140;48.988;8.544;2023-02-01T22:02:29;13.40;;;2.40;;
23565;SDS011;22140;48.988;8.544;2023-02-01T22:07:32;14.27;;;2.47;;
23565;SDS011;22140;48.988;8.544;2023-02-01T22:12:33;15.23;;;2.50;;
23565;SDS011;22140;48.988;8.544;2023-02-01T22:17:35;14.07;;;2.67;;
23565;SDS011;22140;48.988;8.544;2023-02-01T22:22:36;8.82;;;2.00;;
23565;SDS011;22140;48.988;8.544;2023-02-01T22:27:38;14.88;;;2.20;;
23565;SDS011;22140;48.988;8.544;2023-02-01T22:32:59;12.93;;;2.40;;
23565;SDS011;22140;48.988;8.544;2023-02-01T22:38:00;17.48;;;2.80;;
23565;SDS011;22140;48.988;8.544;2023-02-01T22:43:02;9.67;;;2.07;;
23565;SDS011;22140;48.988;8.544;2023-02-01T22:48:03;14.75;;;2.10;;
23565;SDS011;22140;48.988;8.544;2023-02-01T22:53:05;13.65;;;2.28;;
23565;SDS011;22140;48.988;8.544;2023-02-01T22:58:06;13.23;;;2.40;;
23565;SDS011;22140;48.988;8.544;2023-02-01T23:03:08;10.77;;;1.95;;
23565;SDS011;22140;48.988;8.544;2023-02-01T23:08:09;11.07;;;1.83;;
23565;SDS011;22140;48.988;8.544;2023-02-01T23:13:11;16.35;;;2.20;;
23565;SDS011;22140;48.988;8.544;2023-02-01T23:18:12;12.30;;;2.38;;
23565;SDS011;22140;48.988;8.544;2023-02-01T23:23:13;13.50;;;2.57;;
23565;SDS011;22140;48.988;8.544;2023-02-01T23:28:15;12.95;;;2.78;;
23565;SDS011;22140;48.988;8.544;2023-02-01T23:33:16;13.13;;;2.30;;
23565;SDS011;22140;48.988;8.544;2023-02-01T23:38:17;11.30;;;2.13;;
23565;SDS011;22140;48.988;8.544;2023-02-01T23:43:19;7.95;;;1.90;;
23565;SDS011;22140;48.988;8.544;2023-02-01T23:48:39;17.13;;;2.83;;
23565;SDS011;22140;48.988;8.544;2023-02-01T23:53:40;9.23;;;2.05;;
23565;SDS011;22140;48.988;8.544;2023-02-01T23:58:42;11.03;;;2.07;;
